LTBA/IST METAR and TAF weather

Enter ICAO airport designator
Station Type Date Time Source
LTBA METAR 2024/04/17 17:50 UTC NOAA

LTBA 171750Z 35003KT CAVOK 21/08 Q0999


Station Type Date Time Source
LTBA Decoded METAR 2024/04/17 17:50 UTC NOAA

Istanbul / Ataturk, Turkey (LTBA) 40-58N 028-49E 37M
Apr 17, 2024 - 01:50 PM EDT / 2024.04.17 1750 UTC
Wind: from the N (350 degrees) at 3 MPH (3 KT):0
Visibility: greater than 7 mile(s):0
Temperature: 69 F (21 C)
Dew Point: 46 F (8 C)
Relative Humidity: 43%
Pressure (altimeter): 29.50 in. Hg (0999 hPa)
ob: LTBA 171750Z 35003KT CAVOK 21/08 Q0999
cycle: 18

Station Type Date Time Source
LTBA TAF 2024/04/17 18:03 UTC NOAA